PWSweather.com
Personal Weather Stations
Station Observations
GRD01
Warsaw, LesznoPL 05-084

WarsawLesznoPL 05-084

Lat: 52.257404, Lon: 20.564847

Elevation: 298

Station Type: WH3080

http://pogoda.kampinos.waw.pl

High Low Average
Temperature 72.9°F22.7°C 47.8°F8.8°C 61.9°F16.6°C
Dew Point 58.5°F14.7°C 41.0°F5.0°C 50.1°F10.1°C
Winds 10.7 mph 17.2 kmh Calm Calm 3.0 mph SE4.8 kmh SE
Wind Gusts 18.3 mph29.5 kmh -- 7.0 mph11.3 kmh
Humidity 91% 43% 67%
Pressure 30.64 in1037.6 mb 30.44 in1030.8 mb -
Precipitation 0.04 in1.0 mm - -
Hour Temp Dew Point Humidity Winds Wind Gusts Pressure Precip Precip Rate Daily Precip Total
12:00 AM 48.2°F9.0°C 41.0°F5.0°C 76% 1.6 mph SW2.6 kmh SW 2.2 mph3.5 kmh 30.64 in1037.6 mb 0.00 in0.0 mm 0.00 in0.0 mm 0.00 in0.0 mm
12:10 AM 48.2°F9.0°C 41.0°F5.0°C 76% 1.6 mph SW2.6 kmh SW 2.2 mph3.5 kmh 30.20 in1022.7 mb 0.00 in0.0 mm 0.00 in0.0 mm 0.00 in0.0 mm
12:15 AM 48.2°F9.0°C 41.3°F5.2°C 77% 1.6 mph SW2.6 kmh SW 3.1 mph5.0 kmh 30.64 in1037.6 mb 0.00 in0.0 mm 0.00 in0.0 mm 0.00 in0.0 mm
12:30 AM 48.0°F8.9°C 41.2°F5.1°C 77% Calm Calm 1.6 mph2.6 kmh 30.63 in1037.3 mb 0.00 in0.0 mm 0.00 in0.0 mm 0.00 in0.0 mm
12:40 AM 48.0°F8.9°C 41.2°F5.1°C 77% Calm Calm -- 30.19 in1022.4 mb 0.00 in0.0 mm 0.00 in0.0 mm 0.00 in0.0 mm
12:45 AM 47.8°F8.8°C 41.3°F5.2°C 78% 0.7 mph SW1.1 kmh SW 1.6 mph2.6 kmh 30.63 in1037.3 mb 0.00 in0.0 mm 0.00 in0.0 mm 0.00 in0.0 mm
01:00 AM 47.8°F8.8°C 41.3°F5.2°C 78% 1.6 mph SW2.6 kmh SW 3.1 mph5.0 kmh 30.63 in1037.3 mb 0.00 in0.0 mm 0.00 in0.0 mm 0.00 in0.0 mm
01:10 AM 47.8°F8.8°C 41.3°F5.2°C 78% 1.6 mph SW2.6 kmh SW 2.2 mph3.5 kmh 30.18 in1022.0 mb 0.00 in0.0 mm 0.00 in0.0 mm 0.00 in0.0 mm
01:15 AM 47.8°F8.8°C 41.6°F5.3°C 79% 1.6 mph SW2.6 kmh SW 2.2 mph3.5 kmh 30.62 in1036.9 mb 0.00 in0.0 mm 0.00 in0.0 mm 0.00 in0.0 mm
01:30 AM 47.8°F8.8°C 42.0°F5.6°C 80% Calm Calm 2.2 mph3.5 kmh 30.62 in1036.9 mb 0.00 in0.0 mm 0.00 in0.0 mm 0.00 in0.0 mm
01:40 AM 47.8°F8.8°C 42.0°F5.6°C 80% Calm Calm -- 30.18 in1022.0 mb 0.00 in0.0 mm 0.00 in0.0 mm 0.00 in0.0 mm
01:45 AM 48.0°F8.9°C 42.1°F5.6°C 80% 1.6 mph SW2.6 kmh SW 2.2 mph3.5 kmh 30.61 in1036.6 mb 0.00 in0.0 mm 0.00 in0.0 mm 0.00 in0.0 mm
02:00 AM 48.2°F9.0°C 42.3°F5.7°C 80% Calm Calm 1.6 mph2.6 kmh 30.62 in1036.9 mb 0.00 in0.0 mm 0.00 in0.0 mm 0.00 in0.0 mm
02:10 AM 48.4°F9.1°C 42.5°F5.8°C 80% Calm Calm -- 30.17 in1021.7 mb 0.00 in0.0 mm 0.00 in0.0 mm 0.00 in0.0 mm
02:15 AM 48.6°F9.2°C 42.7°F5.9°C 80% Calm Calm 2.2 mph3.5 kmh 30.62 in1036.9 mb 0.00 in0.0 mm 0.00 in0.0 mm 0.00 in0.0 mm
02:30 AM 48.9°F9.4°C 43.0°F6.1°C 80% Calm Calm -- 30.62 in1036.9 mb 0.00 in0.0 mm 0.00 in0.0 mm 0.00 in0.0 mm
02:40 AM 48.9°F9.4°C 43.0°F6.1°C 80% Calm Calm -- 30.17 in1021.7 mb 0.00 in0.0 mm 0.00 in0.0 mm 0.00 in0.0 mm
02:45 AM 48.9°F9.4°C 43.0°F6.1°C 80% Calm Calm 1.6 mph2.6 kmh 30.61 in1036.6 mb 0.00 in0.0 mm 0.00 in0.0 mm 0.00 in0.0 mm
03:00 AM 48.9°F9.4°C 43.0°F6.1°C 80% 0.7 mph SW1.1 kmh SW 1.6 mph2.6 kmh 30.62 in1036.9 mb 0.00 in0.0 mm 0.00 in0.0 mm 0.00 in0.0 mm
03:10 AM 48.7°F9.3°C 42.8°F6.0°C 80% 0.7 mph SW1.1 kmh SW 1.6 mph2.6 kmh 30.17 in1021.7 mb 0.00 in0.0 mm 0.00 in0.0 mm 0.00 in0.0 mm
03:15 AM 48.6°F9.2°C 42.7°F5.9°C 80% 1.6 mph SW2.6 kmh SW 2.2 mph3.5 kmh 30.61 in1036.6 mb 0.00 in0.0 mm 0.00 in0.0 mm 0.00 in0.0 mm
03:30 AM 48.4°F9.1°C 42.5°F5.8°C 80% Calm Calm 2.2 mph3.5 kmh 30.61 in1036.6 mb 0.00 in0.0 mm 0.00 in0.0 mm 0.00 in0.0 mm
03:40 AM 48.4°F9.1°C 42.5°F5.8°C 80% Calm Calm 0.7 mph1.1 kmh 30.16 in1021.3 mb 0.00 in0.0 mm 0.00 in0.0 mm 0.00 in0.0 mm
03:45 AM 48.7°F9.3°C 43.2°F6.2°C 81% 1.6 mph S2.6 kmh S 2.2 mph3.5 kmh 30.61 in1036.6 mb 0.00 in0.0 mm 0.00 in0.0 mm 0.00 in0.0 mm
04:00 AM 49.1°F9.5°C 43.5°F6.4°C 81% 0.7 mph S1.1 kmh S 2.2 mph3.5 kmh 30.61 in1036.6 mb 0.00 in0.0 mm 0.00 in0.0 mm 0.00 in0.0 mm
04:10 AM 49.1°F9.5°C 43.5°F6.4°C 81% 0.7 mph S1.1 kmh S 2.2 mph3.5 kmh 30.16 in1021.3 mb 0.00 in0.0 mm 0.00 in0.0 mm 0.00 in0.0 mm
04:15 AM 49.5°F9.7°C 43.9°F6.6°C 81% 0.7 mph S1.1 kmh S 2.2 mph3.5 kmh 30.61 in1036.6 mb 0.00 in0.0 mm 0.00 in0.0 mm 0.00 in0.0 mm
04:30 AM 50.0°F10.0°C 44.4°F6.9°C 81% 1.6 mph S2.6 kmh S 4.5 mph7.2 kmh 30.61 in1036.6 mb 0.00 in0.0 mm 0.00 in0.0 mm 0.00 in0.0 mm
04:40 AM 50.0°F10.0°C 44.4°F6.9°C 81% 0.7 mph S1.1 kmh S 1.6 mph2.6 kmh 30.15 in1021.0 mb 0.00 in0.0 mm 0.00 in0.0 mm 0.00 in0.0 mm
04:45 AM 50.7°F10.4°C 44.8°F7.1°C 80% 0.7 mph S1.1 kmh S 2.2 mph3.5 kmh 30.60 in1036.2 mb 0.00 in0.0 mm 0.00 in0.0 mm 0.00 in0.0 mm
05:00 AM 50.9°F10.5°C 44.9°F7.2°C 80% 0.7 mph SSW1.1 kmh SSW 2.2 mph3.5 kmh 30.60 in1036.2 mb 0.00 in0.0 mm 0.00 in0.0 mm 0.00 in0.0 mm
05:10 AM 50.9°F10.5°C 44.9°F7.2°C 80% 0.7 mph W1.1 kmh W 1.6 mph2.6 kmh 30.16 in1021.3 mb 0.00 in0.0 mm 0.00 in0.0 mm 0.00 in0.0 mm
05:15 AM 50.9°F10.5°C 44.9°F7.2°C 80% 0.7 mph W1.1 kmh W 3.1 mph5.0 kmh 30.60 in1036.2 mb 0.00 in0.0 mm 0.00 in0.0 mm 0.00 in0.0 mm
05:30 AM 50.9°F10.5°C 44.9°F7.2°C 80% 0.7 mph W1.1 kmh W 2.2 mph3.5 kmh 30.60 in1036.2 mb 0.00 in0.0 mm 0.00 in0.0 mm 0.00 in0.0 mm
05:40 AM 50.9°F10.5°C 44.9°F7.2°C 80% 0.7 mph W1.1 kmh W 1.6 mph2.6 kmh 30.16 in1021.3 mb 0.00 in0.0 mm 0.00 in0.0 mm 0.00 in0.0 mm
05:45 AM 51.8°F11.0°C 45.8°F7.7°C 80% 1.6 mph SW2.6 kmh SW 3.1 mph5.0 kmh 30.59 in1035.9 mb 0.00 in0.0 mm 0.00 in0.0 mm 0.00 in0.0 mm
06:00 AM 52.7°F11.5°C 46.4°F8.0°C 79% 3.1 mph ESE5.0 kmh ESE 5.4 mph8.7 kmh 30.59 in1035.9 mb 0.00 in0.0 mm 0.00 in0.0 mm 0.00 in0.0 mm
06:10 AM 52.7°F11.5°C 46.0°F7.8°C 78% 1.6 mph E2.6 kmh E 3.1 mph5.0 kmh 30.15 in1021.0 mb 0.00 in0.0 mm 0.00 in0.0 mm 0.00 in0.0 mm
06:15 AM 53.8°F12.1°C 46.4°F8.0°C 76% 0.7 mph ESE1.1 kmh ESE 6.9 mph11.1 kmh 30.60 in1036.2 mb 0.00 in0.0 mm 0.00 in0.0 mm 0.00 in0.0 mm
06:30 AM 55.0°F12.8°C 45.8°F7.7°C 71% 3.8 mph ESE6.1 kmh ESE 5.4 mph8.7 kmh 30.59 in1035.9 mb 0.00 in0.0 mm 0.00 in0.0 mm 0.00 in0.0 mm
06:40 AM 55.2°F12.9°C 46.0°F7.8°C 71% 4.5 mph E7.2 kmh E 6.0 mph9.7 kmh 30.14 in1020.7 mb 0.00 in0.0 mm 0.00 in0.0 mm 0.00 in0.0 mm
06:45 AM 55.9°F13.3°C 45.9°F7.7°C 69% 0.7 mph E1.1 kmh E 6.0 mph9.7 kmh 30.59 in1035.9 mb 0.00 in0.0 mm 0.00 in0.0 mm 0.00 in0.0 mm
07:00 AM 56.5°F13.6°C 45.7°F7.6°C 67% 5.4 mph SE8.7 kmh SE 7.6 mph12.2 kmh 30.59 in1035.9 mb 0.00 in0.0 mm 0.00 in0.0 mm 0.00 in0.0 mm
07:10 AM 56.7°F13.7°C 45.8°F7.7°C 67% 3.8 mph E6.1 kmh E 4.5 mph7.2 kmh 30.14 in1020.7 mb 0.00 in0.0 mm 0.00 in0.0 mm 0.00 in0.0 mm
07:15 AM 57.4°F14.1°C 46.1°F7.8°C 66% 1.6 mph E2.6 kmh E 5.4 mph8.7 kmh 30.59 in1035.9 mb 0.00 in0.0 mm 0.00 in0.0 mm 0.00 in0.0 mm
07:30 AM 57.7°F14.3°C 46.5°F8.1°C 66% 5.4 mph ESE8.7 kmh ESE 6.9 mph11.1 kmh 30.59 in1035.9 mb 0.00 in0.0 mm 0.00 in0.0 mm 0.00 in0.0 mm
07:40 AM 57.9°F14.4°C 46.6°F8.1°C 66% 3.1 mph SE5.0 kmh SE 4.5 mph7.2 kmh 30.15 in1021.0 mb 0.00 in0.0 mm 0.00 in0.0 mm 0.00 in0.0 mm
07:45 AM 58.5°F14.7°C 47.1°F8.4°C 66% 1.6 mph SE2.6 kmh SE 7.6 mph12.2 kmh 30.59 in1035.9 mb 0.00 in0.0 mm 0.00 in0.0 mm 0.00 in0.0 mm
08:00 AM 59.9°F15.5°C 47.3°F8.5°C 63% 6.0 mph SE9.7 kmh SE 8.3 mph13.4 kmh 30.58 in1035.6 mb 0.00 in0.0 mm 0.00 in0.0 mm 0.00 in0.0 mm
08:10 AM 59.9°F15.5°C 47.3°F8.5°C 63% 3.8 mph SE6.1 kmh SE 6.0 mph9.7 kmh 30.14 in1020.7 mb 0.00 in0.0 mm 0.00 in0.0 mm 0.00 in0.0 mm
08:15 AM 61.3°F16.3°C 48.2°F9.0°C 62% 1.6 mph SE2.6 kmh SE 6.9 mph11.1 kmh 30.59 in1035.9 mb 0.00 in0.0 mm 0.00 in0.0 mm 0.00 in0.0 mm
08:30 AM 62.6°F17.0°C 49.0°F9.4°C 61% 7.6 mph SE12.2 kmh SE 10.7 mph17.2 kmh 30.58 in1035.6 mb 0.00 in0.0 mm 0.00 in0.0 mm 0.00 in0.0 mm
08:40 AM 62.6°F17.0°C 49.0°F9.4°C 61% 5.4 mph SE8.7 kmh SE 7.6 mph12.2 kmh 30.14 in1020.7 mb 0.00 in0.0 mm 0.00 in0.0 mm 0.00 in0.0 mm
08:45 AM 63.7°F17.6°C 47.7°F8.7°C 56% 4.5 mph SE7.2 kmh SE 8.3 mph13.4 kmh 30.58 in1035.6 mb 0.00 in0.0 mm 0.00 in0.0 mm 0.00 in0.0 mm
09:00 AM 64.8°F18.2°C 47.7°F8.7°C 54% 4.5 mph ESE7.2 kmh ESE 10.7 mph17.2 kmh 30.58 in1035.6 mb 0.00 in0.0 mm 0.00 in0.0 mm 0.00 in0.0 mm
09:10 AM 64.8°F18.2°C 47.7°F8.7°C 54% 2.2 mph SE3.5 kmh SE 3.1 mph5.0 kmh 30.14 in1020.7 mb 0.00 in0.0 mm 0.00 in0.0 mm 0.00 in0.0 mm
09:15 AM 65.7°F18.7°C 48.1°F8.9°C 53% 2.2 mph E3.5 kmh E 8.3 mph13.4 kmh 30.59 in1035.9 mb 0.00 in0.0 mm 0.00 in0.0 mm 0.00 in0.0 mm
09:30 AM 66.2°F19.0°C 48.0°F8.9°C 52% 3.8 mph E6.1 kmh E 7.6 mph12.2 kmh 30.58 in1035.6 mb 0.00 in0.0 mm 0.00 in0.0 mm 0.00 in0.0 mm
09:40 AM 66.2°F19.0°C 48.0°F8.9°C 52% 5.4 mph SE8.7 kmh SE 7.6 mph12.2 kmh 30.13 in1020.3 mb 0.00 in0.0 mm 0.00 in0.0 mm 0.00 in0.0 mm
09:45 AM 66.9°F19.4°C 47.7°F8.7°C 50% 5.4 mph SE8.7 kmh SE 9.2 mph14.8 kmh 30.57 in1035.2 mb 0.00 in0.0 mm 0.00 in0.0 mm 0.00 in0.0 mm
10:00 AM 67.6°F19.8°C 48.3°F9.1°C 50% 3.1 mph E5.0 kmh E 9.2 mph14.8 kmh 30.57 in1035.2 mb 0.00 in0.0 mm 0.00 in0.0 mm 0.00 in0.0 mm
10:10 AM 67.8°F19.9°C 48.5°F9.2°C 50% 6.0 mph E9.7 kmh E 8.3 mph13.4 kmh 30.12 in1020.0 mb 0.00 in0.0 mm 0.00 in0.0 mm 0.00 in0.0 mm
10:15 AM 68.4°F20.2°C 48.5°F9.2°C 49% 3.8 mph E6.1 kmh E 6.9 mph11.1 kmh 30.57 in1035.2 mb 0.00 in0.0 mm 0.00 in0.0 mm 0.00 in0.0 mm
10:30 AM 69.4°F20.8°C 48.3°F9.1°C 47% 6.9 mph E11.1 kmh E 10.7 mph17.2 kmh 30.56 in1034.9 mb 0.00 in0.0 mm 0.00 in0.0 mm 0.00 in0.0 mm
10:40 AM 69.4°F20.8°C 48.3°F9.1°C 47% 9.8 mph SE15.8 kmh SE 10.7 mph17.2 kmh 30.12 in1020.0 mb 0.00 in0.0 mm 0.00 in0.0 mm 0.00 in0.0 mm
10:45 AM 70.3°F21.3°C 46.8°F8.2°C 43% 6.0 mph ESE9.7 kmh ESE 11.4 mph18.3 kmh 30.56 in1034.9 mb 0.00 in0.0 mm 0.00 in0.0 mm 0.00 in0.0 mm
11:00 AM 70.9°F21.6°C 47.3°F8.5°C 43% 6.0 mph E9.7 kmh E 14.5 mph23.3 kmh 30.55 in1034.5 mb 0.00 in0.0 mm 0.00 in0.0 mm 0.00 in0.0 mm
11:10 AM 71.1°F21.7°C 47.4°F8.6°C 43% 6.0 mph E9.7 kmh E 9.8 mph15.8 kmh 30.11 in1019.6 mb 0.00 in0.0 mm 0.00 in0.0 mm 0.00 in0.0 mm
11:15 AM 71.8°F22.1°C 48.1°F8.9°C 43% 7.6 mph E12.2 kmh E 12.1 mph19.5 kmh 30.55 in1034.5 mb 0.00 in0.0 mm 0.00 in0.0 mm 0.00 in0.0 mm
11:30 AM 71.8°F22.1°C 48.7°F9.3°C 44% 7.6 mph E12.2 kmh E 14.5 mph23.3 kmh 30.54 in1034.2 mb 0.00 in0.0 mm 0.00 in0.0 mm 0.00 in0.0 mm
11:40 AM 71.8°F22.1°C 49.3°F9.6°C 45% 6.9 mph SE11.1 kmh SE 9.2 mph14.8 kmh 30.10 in1019.3 mb 0.00 in0.0 mm 0.00 in0.0 mm 0.00 in0.0 mm
11:45 AM 72.1°F22.3°C 50.8°F10.4°C 47% 6.9 mph ESE11.1 kmh ESE 10.7 mph17.2 kmh 30.55 in1034.5 mb 0.00 in0.0 mm 0.00 in0.0 mm 0.00 in0.0 mm
12:00 PM 72.7°F22.6°C 49.5°F9.7°C 44% 4.5 mph ESE7.2 kmh ESE 13.0 mph20.9 kmh 30.54 in1034.2 mb 0.00 in0.0 mm 0.00 in0.0 mm 0.00 in0.0 mm
12:10 PM 72.7°F22.6°C 49.5°F9.7°C 44% 8.3 mph SE13.4 kmh SE 9.2 mph14.8 kmh 30.09 in1019.0 mb 0.00 in0.0 mm 0.00 in0.0 mm 0.00 in0.0 mm
12:15 PM 72.7°F22.6°C 48.9°F9.4°C 43% 4.5 mph SE7.2 kmh SE 10.7 mph17.2 kmh 30.54 in1034.2 mb 0.00 in0.0 mm 0.00 in0.0 mm 0.00 in0.0 mm
12:30 PM 72.3°F22.4°C 51.5°F10.8°C 48% 6.0 mph SE9.7 kmh SE 9.2 mph14.8 kmh 30.53 in1033.9 mb 0.00 in0.0 mm 0.00 in0.0 mm 0.00 in0.0 mm
12:40 PM 72.3°F22.4°C 51.5°F10.8°C 48% 5.4 mph SE8.7 kmh SE 7.6 mph12.2 kmh 30.08 in1018.6 mb 0.00 in0.0 mm 0.00 in0.0 mm 0.00 in0.0 mm
12:45 PM 72.3°F22.4°C 52.1°F11.2°C 49% 9.2 mph E14.8 kmh E 18.3 mph29.5 kmh 30.52 in1033.5 mb 0.00 in0.0 mm 0.00 in0.0 mm 0.00 in0.0 mm
01:00 PM 72.3°F22.4°C 52.6°F11.4°C 50% 5.4 mph ENE8.7 kmh ENE 13.6 mph21.9 kmh 30.52 in1033.5 mb 0.00 in0.0 mm 0.00 in0.0 mm 0.00 in0.0 mm
01:10 PM 72.3°F22.4°C 52.6°F11.4°C 50% 5.4 mph NE8.7 kmh NE 7.6 mph12.2 kmh 30.07 in1018.3 mb 0.00 in0.0 mm 0.00 in0.0 mm 0.00 in0.0 mm
01:15 PM 72.1°F22.3°C 52.5°F11.4°C 50% 6.9 mph ESE11.1 kmh ESE 9.8 mph15.8 kmh 30.51 in1033.2 mb 0.00 in0.0 mm 0.00 in0.0 mm 0.00 in0.0 mm
01:30 PM 72.5°F22.5°C 51.7°F10.9°C 48% 5.4 mph E8.7 kmh E 13.0 mph20.9 kmh 30.50 in1032.8 mb 0.00 in0.0 mm 0.00 in0.0 mm 0.00 in0.0 mm
01:40 PM 72.5°F22.5°C 51.7°F10.9°C 48% 6.0 mph N9.7 kmh N 7.6 mph12.2 kmh 30.06 in1017.9 mb 0.00 in0.0 mm 0.00 in0.0 mm 0.00 in0.0 mm
01:45 PM 72.7°F22.6°C 51.3°F10.7°C 47% 6.0 mph NE9.7 kmh NE 13.0 mph20.9 kmh 30.49 in1032.5 mb 0.00 in0.0 mm 0.00 in0.0 mm 0.00 in0.0 mm
02:00 PM 72.9°F22.7°C 50.3°F10.2°C 45% 10.7 mph SE17.2 kmh SE 15.2 mph24.5 kmh 30.50 in1032.8 mb 0.00 in0.0 mm 0.00 in0.0 mm 0.00 in0.0 mm
02:10 PM 72.9°F22.7°C 50.3°F10.2°C 45% 6.0 mph NE9.7 kmh NE 9.8 mph15.8 kmh 30.05 in1017.6 mb 0.00 in0.0 mm 0.00 in0.0 mm 0.00 in0.0 mm
02:15 PM 72.9°F22.7°C 50.9°F10.5°C 46% 8.3 mph SE13.4 kmh SE 13.0 mph20.9 kmh 30.49 in1032.5 mb 0.00 in0.0 mm 0.00 in0.0 mm 0.00 in0.0 mm
02:30 PM 72.7°F22.6°C 50.7°F10.4°C 46% 3.8 mph E6.1 kmh E 13.6 mph21.9 kmh 30.49 in1032.5 mb 0.00 in0.0 mm 0.00 in0.0 mm 0.00 in0.0 mm
02:40 PM 72.5°F22.5°C 50.5°F10.3°C 46% 6.9 mph SE11.1 kmh SE 9.2 mph14.8 kmh 30.05 in1017.6 mb 0.00 in0.0 mm 0.00 in0.0 mm 0.00 in0.0 mm
02:45 PM 71.8°F22.1°C 53.7°F12.1°C 53% 4.5 mph ESE7.2 kmh ESE 13.0 mph20.9 kmh 30.50 in1032.8 mb 0.00 in0.0 mm 0.00 in0.0 mm 0.00 in0.0 mm
03:00 PM 69.4°F20.8°C 54.9°F12.7°C 60% 1.6 mph ESE2.6 kmh ESE 9.8 mph15.8 kmh 30.50 in1032.8 mb 0.00 in0.0 mm 0.00 in0.0 mm 0.00 in0.0 mm
03:10 PM 69.3°F20.7°C 55.2°F12.9°C 61% 1.6 mph SE2.6 kmh SE 2.2 mph3.5 kmh 30.06 in1017.9 mb 0.00 in0.0 mm 0.00 in0.0 mm 0.00 in0.0 mm
03:15 PM 68.0°F20.0°C 55.8°F13.2°C 65% 2.2 mph E3.5 kmh E 3.8 mph6.1 kmh 30.50 in1032.8 mb 0.00 in0.0 mm 0.00 in0.0 mm 0.00 in0.0 mm
03:30 PM 67.1°F19.5°C 57.0°F13.9°C 70% 1.6 mph NE2.6 kmh NE 4.5 mph7.2 kmh 30.49 in1032.5 mb 0.00 in0.0 mm 0.00 in0.0 mm 0.00 in0.0 mm
03:40 PM 67.1°F19.5°C 57.0°F13.9°C 70% 1.6 mph NE2.6 kmh NE 2.2 mph3.5 kmh 30.04 in1017.3 mb 0.00 in0.0 mm 0.00 in0.0 mm 0.00 in0.0 mm
03:45 PM 67.1°F19.5°C 57.4°F14.1°C 71% 1.6 mph NE2.6 kmh NE 5.4 mph8.7 kmh 30.49 in1032.5 mb 0.00 in0.0 mm 0.00 in0.0 mm 0.00 in0.0 mm
04:00 PM 66.7°F19.3°C 57.0°F13.9°C 71% 2.2 mph NE3.5 kmh NE 3.8 mph6.1 kmh 30.48 in1032.2 mb 0.00 in0.0 mm 0.00 in0.0 mm 0.00 in0.0 mm
04:10 PM 66.7°F19.3°C 57.0°F13.9°C 71% 2.2 mph NE3.5 kmh NE 3.1 mph5.0 kmh 30.04 in1017.3 mb 0.00 in0.0 mm 0.00 in0.0 mm 0.00 in0.0 mm
04:15 PM 66.7°F19.3°C 57.0°F13.9°C 71% 2.2 mph NE3.5 kmh NE 5.4 mph8.7 kmh 30.48 in1032.2 mb 0.00 in0.0 mm 0.00 in0.0 mm 0.00 in0.0 mm
04:30 PM 67.1°F19.5°C 57.0°F13.9°C 70% 2.2 mph NE3.5 kmh NE 5.4 mph8.7 kmh 30.48 in1032.2 mb 0.00 in0.0 mm 0.00 in0.0 mm 0.00 in0.0 mm
04:40 PM 67.1°F19.5°C 57.0°F13.9°C 70% 3.1 mph N5.0 kmh N 4.5 mph7.2 kmh 30.03 in1016.9 mb 0.00 in0.0 mm 0.00 in0.0 mm 0.00 in0.0 mm
04:45 PM 67.3°F19.6°C 56.4°F13.6°C 68% 4.5 mph NNE7.2 kmh NNE 6.9 mph11.1 kmh 30.47 in1031.8 mb 0.00 in0.0 mm 0.00 in0.0 mm 0.00 in0.0 mm
05:00 PM 67.5°F19.7°C 55.7°F13.2°C 66% 3.8 mph NNE6.1 kmh NNE 7.6 mph12.2 kmh 30.46 in1031.5 mb 0.00 in0.0 mm 0.00 in0.0 mm 0.00 in0.0 mm
05:10 PM 67.5°F19.7°C 55.7°F13.2°C 66% 5.4 mph N8.7 kmh N 7.6 mph12.2 kmh 30.03 in1016.9 mb 0.00 in0.0 mm 0.00 in0.0 mm 0.00 in0.0 mm
05:15 PM 67.8°F19.9°C 56.0°F13.3°C 66% 4.5 mph NNE7.2 kmh NNE 8.3 mph13.4 kmh 30.46 in1031.5 mb 0.00 in0.0 mm 0.00 in0.0 mm 0.00 in0.0 mm
05:30 PM 67.6°F19.8°C 55.9°F13.3°C 66% 3.8 mph NNE6.1 kmh NNE 7.6 mph12.2 kmh 30.47 in1031.8 mb 0.00 in0.0 mm 0.00 in0.0 mm 0.00 in0.0 mm
05:40 PM 67.6°F19.8°C 55.9°F13.3°C 66% 3.8 mph NE6.1 kmh NE 5.4 mph8.7 kmh 30.02 in1016.6 mb 0.00 in0.0 mm 0.00 in0.0 mm 0.00 in0.0 mm
05:45 PM 67.5°F19.7°C 56.1°F13.4°C 67% 6.0 mph N9.7 kmh N 7.6 mph12.2 kmh 30.47 in1031.8 mb 0.00 in0.0 mm 0.00 in0.0 mm 0.00 in0.0 mm
06:00 PM 67.3°F19.6°C 55.5°F13.1°C 66% 5.4 mph NE8.7 kmh NE 7.6 mph12.2 kmh 30.47 in1031.8 mb 0.00 in0.0 mm 0.00 in0.0 mm 0.00 in0.0 mm
06:10 PM 67.3°F19.6°C 55.5°F13.1°C 66% 4.5 mph NE7.2 kmh NE 6.9 mph11.1 kmh 30.02 in1016.6 mb 0.00 in0.0 mm 0.00 in0.0 mm 0.00 in0.0 mm
06:15 PM 67.3°F19.6°C 55.5°F13.1°C 66% 3.1 mph NE5.0 kmh NE 5.4 mph8.7 kmh 30.46 in1031.5 mb 0.00 in0.0 mm 0.00 in0.0 mm 0.00 in0.0 mm
06:30 PM 67.1°F19.5°C 55.4°F13.0°C 66% 3.1 mph NNE5.0 kmh NNE 6.0 mph9.7 kmh 30.46 in1031.5 mb 0.00 in0.0 mm 0.00 in0.0 mm 0.00 in0.0 mm
06:40 PM 67.1°F19.5°C 55.4°F13.0°C 66% 3.1 mph NE5.0 kmh NE 4.5 mph7.2 kmh 30.02 in1016.6 mb 0.00 in0.0 mm 0.00 in0.0 mm 0.00 in0.0 mm
06:45 PM 66.9°F19.4°C 55.2°F12.9°C 66% 4.5 mph NNE7.2 kmh NNE 6.0 mph9.7 kmh 30.47 in1031.8 mb 0.00 in0.0 mm 0.00 in0.0 mm 0.00 in0.0 mm
07:00 PM 66.7°F19.3°C 55.0°F12.8°C 66% 3.1 mph N5.0 kmh N 5.4 mph8.7 kmh 30.46 in1031.5 mb 0.00 in0.0 mm 0.00 in0.0 mm 0.00 in0.0 mm
07:10 PM 66.7°F19.3°C 55.0°F12.8°C 66% 3.1 mph N5.0 kmh N 3.8 mph6.1 kmh 30.02 in1016.6 mb 0.00 in0.0 mm 0.00 in0.0 mm 0.00 in0.0 mm
07:15 PM 66.4°F19.1°C 54.7°F12.6°C 66% 2.2 mph NNE3.5 kmh NNE 4.5 mph7.2 kmh 30.45 in1031.2 mb 0.00 in0.0 mm 0.00 in0.0 mm 0.00 in0.0 mm
07:30 PM 66.4°F19.1°C 54.3°F12.4°C 65% 1.6 mph NNE2.6 kmh NNE 4.5 mph7.2 kmh 30.46 in1031.5 mb 0.00 in0.0 mm 0.00 in0.0 mm 0.00 in0.0 mm
07:40 PM 66.6°F19.2°C 54.4°F12.4°C 65% 1.6 mph NE2.6 kmh NE 2.2 mph3.5 kmh 30.01 in1016.3 mb 0.00 in0.0 mm 0.00 in0.0 mm 0.00 in0.0 mm
07:45 PM 66.6°F19.2°C 54.4°F12.4°C 65% 1.6 mph NE2.6 kmh NE 3.8 mph6.1 kmh 30.45 in1031.2 mb 0.00 in0.0 mm 0.00 in0.0 mm 0.00 in0.0 mm
08:00 PM 66.7°F19.3°C 54.2°F12.3°C 64% 3.1 mph ENE5.0 kmh ENE 4.5 mph7.2 kmh 30.45 in1031.2 mb 0.00 in0.0 mm 0.00 in0.0 mm 0.00 in0.0 mm
08:10 PM 66.7°F19.3°C 54.2°F12.3°C 64% 3.1 mph E5.0 kmh E 3.8 mph6.1 kmh 30.01 in1016.3 mb 0.00 in0.0 mm 0.00 in0.0 mm 0.00 in0.0 mm
08:15 PM 67.1°F19.5°C 54.5°F12.5°C 64% 3.8 mph ESE6.1 kmh ESE 6.9 mph11.1 kmh 30.45 in1031.2 mb 0.00 in0.0 mm 0.00 in0.0 mm 0.00 in0.0 mm
08:30 PM 67.6°F19.8°C 55.0°F12.8°C 64% 3.1 mph SE5.0 kmh SE 5.4 mph8.7 kmh 30.45 in1031.2 mb 0.00 in0.0 mm 0.00 in0.0 mm 0.00 in0.0 mm
08:40 PM 67.6°F19.8°C 55.0°F12.8°C 64% 3.8 mph E6.1 kmh E 5.4 mph8.7 kmh 30.00 in1015.9 mb 0.00 in0.0 mm 0.00 in0.0 mm 0.00 in0.0 mm
08:45 PM 67.6°F19.8°C 55.0°F12.8°C 64% Calm Calm 4.5 mph7.2 kmh 30.44 in1030.8 mb 0.00 in0.0 mm 0.00 in0.0 mm 0.00 in0.0 mm
09:00 PM 67.5°F19.7°C 55.3°F12.9°C 65% 0.7 mph SE1.1 kmh SE 1.6 mph2.6 kmh 30.44 in1030.8 mb 0.00 in0.0 mm 0.00 in0.0 mm 0.00 in0.0 mm
09:10 PM 67.5°F19.7°C 55.3°F12.9°C 65% Calm Calm 0.7 mph1.1 kmh 30.00 in1015.9 mb 0.00 in0.0 mm 0.00 in0.0 mm 0.00 in0.0 mm
09:15 PM 67.1°F19.5°C 55.8°F13.2°C 67% 7.6 mph SSW12.2 kmh SSW 11.4 mph18.3 kmh 30.45 in1031.2 mb 0.00 in0.0 mm 0.00 in0.0 mm 0.00 in0.0 mm
09:30 PM 66.2°F19.0°C 56.1°F13.4°C 70% 4.5 mph SW7.2 kmh SW 12.1 mph19.5 kmh 30.47 in1031.8 mb 0.00 in0.0 mm 0.00 in0.0 mm 0.00 in0.0 mm
09:40 PM 66.2°F19.0°C 56.1°F13.4°C 70% 4.5 mph S7.2 kmh S 6.0 mph9.7 kmh 30.03 in1016.9 mb 0.00 in0.0 mm 0.00 in0.0 mm 0.00 in0.0 mm
09:45 PM 63.9°F17.7°C 55.4°F13.0°C 74% 4.5 mph W7.2 kmh W 8.3 mph13.4 kmh 30.46 in1031.5 mb 0.01 in0.3 mm 0.12 in3.0 mm 0.01 in0.3 mm
10:00 PM 62.6°F17.0°C 56.7°F13.7°C 81% 6.9 mph NW11.1 kmh NW 9.2 mph14.8 kmh 30.46 in1031.5 mb 0.02 in0.5 mm 0.01 in0.3 mm 0.02 in0.5 mm
10:10 PM 62.6°F17.0°C 56.7°F13.7°C 81% 6.0 mph W9.7 kmh W 7.6 mph12.2 kmh 30.02 in1016.6 mb 0.02 in0.5 mm 0.00 in0.0 mm 0.02 in0.5 mm
10:15 PM 62.1°F16.7°C 56.8°F13.8°C 83% 4.5 mph WNW7.2 kmh WNW 9.2 mph14.8 kmh 30.46 in1031.5 mb 0.02 in0.5 mm 0.00 in0.0 mm 0.02 in0.5 mm
10:30 PM 61.7°F16.5°C 57.1°F13.9°C 85% 4.5 mph NNW7.2 kmh NNW 7.6 mph12.2 kmh 30.45 in1031.2 mb 0.02 in0.5 mm 0.00 in0.0 mm 0.02 in0.5 mm
10:40 PM 61.7°F16.5°C 57.1°F13.9°C 85% 3.1 mph NW5.0 kmh NW 4.5 mph7.2 kmh 30.02 in1016.6 mb 0.02 in0.5 mm 0.00 in0.0 mm 0.02 in0.5 mm
10:45 PM 61.5°F16.4°C 57.6°F14.2°C 87% 5.4 mph NNW8.7 kmh NNW 6.9 mph11.1 kmh 30.45 in1031.2 mb 0.02 in0.5 mm 0.00 in0.0 mm 0.04 in1.0 mm
11:00 PM 61.3°F16.3°C 58.1°F14.5°C 89% 4.5 mph NNW7.2 kmh NNW 6.0 mph9.7 kmh 30.45 in1031.2 mb 0.01 in0.3 mm 0.00 in0.0 mm 0.02 in0.5 mm
11:10 PM 61.3°F16.3°C 58.1°F14.5°C 89% 2.2 mph NW3.5 kmh NW 4.5 mph7.2 kmh 30.01 in1016.3 mb 0.01 in0.3 mm 0.00 in0.0 mm 0.01 in0.3 mm
11:15 PM 61.2°F16.2°C 58.2°F14.6°C 90% 0.7 mph NW1.1 kmh NW 4.5 mph7.2 kmh 30.46 in1031.5 mb 0.01 in0.3 mm 0.00 in0.0 mm 0.02 in0.5 mm
11:30 PM 61.2°F16.2°C 58.2°F14.6°C 90% Calm Calm 2.2 mph3.5 kmh 30.46 in1031.5 mb 0.01 in0.3 mm 0.00 in0.0 mm 0.02 in0.5 mm
11:40 PM 61.2°F16.2°C 58.2°F14.6°C 90% Calm Calm 0.7 mph1.1 kmh 30.02 in1016.6 mb 0.01 in0.3 mm 0.00 in0.0 mm 0.01 in0.3 mm
11:45 PM 61.2°F16.2°C 58.5°F14.7°C 91% 1.6 mph SW2.6 kmh SW 3.8 mph6.1 kmh 30.47 in1031.8 mb 0.00 in0.0 mm 0.00 in0.0 mm 0.02 in0.5 mm